Time;durP1;ratioP1;P1;durP2;ratioP2;P2;SDS_P1;SDS_P2;PMS_P1;PMS_P2;Temp;Humidity;BMP_temperature;BMP_pressure;BME280_temperature;BME280_humidity;BME280_pressure;Samples;Min_cycle;Max_cycle;Signal;HPM_P1;HPM_P2
2023/04/04 00:07:52;;;;;;;28.52;4.00;;;;;;;23.46;37.78;101507.22;20755605;28;20133;-72
2023/04/04 00:17:57;;;;;;;31.35;4.22;;;;;;;23.44;37.84;101505.81;20740659;28;20061;-71
2023/04/04 00:28:02;;;;;;;23.00;4.70;;;;;;;23.33;38.07;101505.88;20733147;28;20462;-67
2023/04/04 00:38:03;;;;;;;38.00;5.68;;;;;;;23.34;37.91;101504.75;20742417;28;20030;-62
2023/04/04 00:48:07;;;;;;;23.63;3.95;;;;;;;23.06;38.40;101522.97;20724032;28;20531;-65
2023/04/04 00:58:09;;;;;;;24.17;3.63;;;;;;;22.07;38.36;101393.22;20717951;28;20030;-66
2023/04/04 01:08:11;;;;;;;17.92;2.90;;;;;;;22.99;38.25;101535.53;20740912;28;20042;-66
2023/04/04 01:18:17;;;;;;;15.07;3.35;;;;;;;22.91;38.66;101528.56;20752479;28;20091;-65
2023/04/04 01:28:19;;;;;;;13.98;3.03;;;;;;;22.89;38.59;101558.69;20753884;28;20824;-65
2023/04/04 01:38:38;;;;;;;16.98;3.60;;;;;;;22.86;38.31;101539.69;20742766;28;20467;-66
2023/04/04 01:48:43;;;;;;;13.73;2.90;;;;;;;22.78;38.64;101532.72;20751540;28;20042;-63
2023/04/04 01:58:47;;;;;;;16.70;2.58;;;;;;;22.87;38.52;101529.38;20754058;28;20446;-64
2023/04/04 02:08:49;;;;;;;10.23;2.83;;;;;;;22.77;38.87;101517.09;20726977;28;20056;-65
2023/04/04 02:18:50;;;;;;;7.60;2.75;;;;;;;22.81;38.78;101514.56;20676419;28;20077;-64
2023/04/04 02:28:51;;;;;;;30.23;3.38;;;;;;;22.77;38.65;101503.16;20730894;28;20046;-65
2023/04/04 02:38:53;;;;;;;8.38;2.80;;;;;;;22.91;38.41;101505.38;20751638;28;20045;-68
2023/04/04 02:48:55;;;;;;;9.05;2.53;;;;;;;22.92;38.62;101493.13;20749990;28;20045;-68
2023/04/04 02:58:56;;;;;;;11.90;2.72;;;;;;;22.90;38.01;101489.75;20744720;28;20444;-68
2023/04/04 03:08:57;;;;;;;14.75;2.72;;;;;;;23.09;37.83;101476.88;20746945;28;20091;-69
2023/04/04 03:18:59;;;;;;;5.35;2.30;;;;;;;23.14;37.13;101474.09;20753939;28;20120;-68
2023/04/04 03:29:03;;;;;;;8.77;2.17;;;;;;;23.20;36.92;101486.91;20748492;28;20054;-68
2023/04/04 03:39:04;;;;;;;8.80;2.10;;;;;;;23.12;37.15;101467.94;20830198;28;20045;-67
2023/04/04 03:49:08;;;;;;;3.05;1.70;;;;;;;23.19;36.91;101471.28;20827279;28;20449;-67
2023/04/04 03:59:18;;;;;;;6.53;2.17;;;;;;;23.13;36.76;101454.81;20769038;28;20559;-68
2023/04/04 04:09:20;;;;;;;4.22;2.03;;;;;;;23.09;36.52;101451.75;20747076;28;20042;-68
2023/04/04 04:19:21;;;;;;;5.50;2.08;;;;;;;23.12;36.51;101437.22;20813140;28;20373;-67
2023/04/04 04:29:22;;;;;;;5.82;1.77;;;;;;;23.23;36.41;101455.66;20765020;28;20485;-67
2023/04/04 04:39:24;;;;;;;2.33;1.60;;;;;;;23.21;36.33;101440.28;20778105;28;20025;-66
2023/04/04 04:49:26;;;;;;;3.28;1.77;;;;;;;23.12;36.55;101419.66;20788608;28;20045;-67
2023/04/04 04:59:28;;;;;;;5.15;1.85;;;;;;;23.20;36.39;101421.88;20792025;28;20496;-66
2023/04/04 05:09:29;;;;;;;3.55;1.42;;;;;;;23.27;36.22;101436.34;20789476;28;20396;-68
2023/04/04 05:19:31;;;;;;;4.43;2.17;;;;;;;23.23;35.87;101422.13;20755837;28;20046;-67
2023/04/04 05:29:32;;;;;;;3.83;1.63;;;;;;;23.24;35.71;101423.81;20746515;28;20456;-68
2023/04/04 05:39:34;;;;;;;4.03;1.67;;;;;;;23.21;35.84;101412.38;20752248;28;20042;-69
2023/04/04 05:49:35;;;;;;;3.92;1.70;;;;;;;23.18;35.52;101401.75;20750541;28;20042;-68
2023/04/04 05:59:37;;;;;;;2.78;1.52;;;;;;;23.12;35.86;101377.78;20750958;28;20041;-68
2023/04/04 06:09:40;;;;;;;2.75;1.55;;;;;;;23.20;36.05;101378.03;20750393;28;20073;-68
2023/04/04 06:19:41;;;;;;;3.22;1.83;;;;;;;23.12;36.04;101364.66;20724116;28;20390;-67
2023/04/04 06:29:47;;;;;;;3.03;1.52;;;;;;;22.95;35.71;101339.88;20744997;28;20088;-68
2023/04/04 06:39:52;;;;;;;3.55;1.75;;;;;;;23.09;35.35;101368.00;20747897;28;20056;-67
2023/04/04 06:49:53;;;;;;;1.90;1.42;;;;;;;23.13;35.74;101363.53;20747077;28;20049;-67
2023/04/04 06:59:55;;;;;;;2.25;1.50;;;;;;;23.04;35.46;101348.50;20716783;28;20555;-67
2023/04/04 07:09:56;;;;;;;3.42;1.35;;;;;;;22.89;35.48;101318.69;20747694;28;20041;-66
2023/04/04 07:19:58;;;;;;;2.45;1.50;;;;;;;22.97;35.50;101346.03;20746888;28;20481;-66
2023/04/04 07:29:59;;;;;;;2.40;1.50;;;;;;;23.01;35.55;101363.03;20725997;28;20094;-67
2023/04/04 07:40:01;;;;;;;1.55;1.20;;;;;;;23.04;35.48;101368.03;20745852;28;20405;-67
2023/04/04 07:50:05;;;;;;;1.67;1.17;;;;;;;23.00;35.83;101355.75;20744540;28;20350;-66
2023/04/04 08:00:10;;;;;;;2.35;1.67;;;;;;;23.01;35.56;101365.81;20712566;28;20096;-67
2023/04/04 08:10:12;;;;;;;2.13;1.40;;;;;;;22.98;35.46;101364.44;20743195;28;20139;-67
2023/04/04 08:20:19;;;;;;;2.90;1.58;;;;;;;22.94;35.52;101371.69;20744914;28;20112;-67
2023/04/04 08:30:21;;;;;;;2.17;1.30;;;;;;;22.71;35.32;101342.44;20744046;28;20571;-67
2023/04/04 08:40:22;;;;;;;1.45;1.23;;;;;;;22.91;35.39;101385.38;20781260;28;20046;-66
2023/04/04 08:50:29;;;;;;;2.75;1.40;;;;;;;22.75;35.72;101360.28;20732877;28;20081;-66
2023/04/04 09:00:31;;;;;;;2.90;1.35;;;;;;;22.89;35.39;101376.44;20722898;28;20408;-66
2023/04/04 09:10:34;;;;;;;1.60;1.50;;;;;;;22.86;35.48;101380.63;20737088;28;20440;-66
2023/04/04 09:20:40;;;;;;;2.70;1.55;;;;;;;22.71;35.68;101356.38;20712571;28;20049;-67
2023/04/04 09:30:45;;;;;;;2.22;1.42;;;;;;;22.88;35.50;101392.34;20755525;28;20405;-66
2023/04/04 09:40:47;;;;;;;2.97;1.50;;;;;;;22.82;35.73;101394.31;20755787;28;20037;-66
2023/04/04 09:50:48;;;;;;;1.67;1.40;;;;;;;22.84;35.75;101413.56;20755184;28;20064;-66
2023/04/04 10:00:53;;;;;;;3.03;1.63;;;;;;;22.84;35.48;101436.72;20753784;28;20041;-67
2023/04/04 10:11:05;;;;;;;2.00;1.13;;;;;;;22.72;35.83;101433.38;20753250;28;20050;-67
2023/04/04 10:21:08;;;;;;;2.33;1.50;;;;;;;22.78;35.59;101454.59;20753763;28;20045;-66
2023/04/04 10:31:23;;;;;;;1.92;1.20;;;;;;;22.75;35.86;101466.31;20741964;28;20563;-66
2023/04/04 10:41:30;;;;;;;2.10;1.40;;;;;;;22.54;35.74;101436.75;20751027;28;20042;-66
2023/04/04 10:51:32;;;;;;;4.03;1.50;;;;;;;22.75;39.63;101488.63;20749722;28;20042;-68
2023/04/04 11:02:00;;;;;;;12.23;1.92;;;;;;;22.68;38.23;101492.81;20746139;28;20381;-67
2023/04/04 11:12:09;;;;;;;3.77;1.87;;;;;;;22.50;39.78;101474.72;20758406;28;20397;-67
2023/04/04 11:22:11;;;;;;;6.25;1.85;;;;;;;22.46;39.35;101505.09;20760848;28;20045;-69
2023/04/04 11:32:40;;;;;;;3.38;1.60;;;;;;;22.42;39.75;101547.75;20754215;28;20050;-68
2023/04/04 11:42:51;;;;;;;8.77;2.00;;;;;;;22.41;39.16;101571.19;20779659;28;20033;-66
2023/04/04 11:52:53;;;;;;;8.35;2.05;;;;;;;22.36;39.21;101573.94;20756429;28;20091;-68
2023/04/04 12:02:56;;;;;;;3.42;1.50;;;;;;;22.20;39.19;101559.13;20745166;28;20042;-68
2023/04/04 12:12:58;;;;;;;2.75;1.73;;;;;;;22.27;39.07;101582.88;20744559;28;20057;-68
2023/04/04 12:22:59;;;;;;;2.50;1.50;;;;;;;22.10;39.20;101551.56;20745530;28;20108;-68
2023/04/04 12:33:04;;;;;;;3.55;1.63;;;;;;;22.12;39.72;101541.00;20741603;28;20046;-68
2023/04/04 12:43:15;;;;;;;2.83;1.75;;;;;;;22.19;39.58;101563.88;20741801;28;20045;-68
2023/04/04 12:53:22;;;;;;;3.35;1.50;;;;;;;22.19;39.27;101563.03;20744305;28;20416;-68
2023/04/04 13:03:24;;;;;;;3.10;1.88;;;;;;;22.17;39.39;101571.66;20759011;28;20500;-68
2023/04/04 13:13:37;;;;;;;2.38;1.48;;;;;;;22.09;39.47;101572.19;20710036;28;20050;-67
2023/04/04 13:23:47;;;;;;;2.20;1.48;;;;;;;22.12;39.61;101596.75;20797963;28;20041;-68
2023/04/04 13:33:49;;;;;;;1.95;1.67;;;;;;;22.13;39.59;101592.88;20810022;28;20555;-68
2023/04/04 13:43:51;;;;;;;4.20;1.80;;;;;;;22.11;39.84;101583.88;20756133;28;20092;-68
2023/04/04 13:53:52;;;;;;;6.90;2.72;;;;;;;22.12;41.00;101584.75;20752613;28;20093;-70
2023/04/04 14:03:54;;;;;;;10.88;3.13;;;;;;;22.18;41.26;101600.41;20756078;28;20053;-71
2023/04/04 14:13:56;;;;;;;8.70;2.85;;;;;;;22.26;40.98;101589.53;20775308;28;20080;-73
2023/04/04 14:23:58;;;;;;;8.43;2.25;;;;;;;22.22;41.33;101585.66;20833490;28;20049;-73
2023/04/04 14:34:00;;;;;;;8.30;2.13;;;;;;;22.20;41.41;101593.44;20832457;28;20084;-73
2023/04/04 14:44:02;;;;;;;7.13;2.20;;;;;;;22.19;41.30;101588.97;20832999;28;20443;-71
2023/04/04 14:54:06;;;;;;;7.70;2.10;;;;;;;21.99;41.46;101552.63;20832194;28;20381;-72
2023/04/04 15:04:10;;;;;;;8.20;2.20;;;;;;;22.21;41.28;101589.53;20831597;28;20034;-73
2023/04/04 15:14:14;;;;;;;5.05;1.92;;;;;;;22.07;41.31;101555.72;20830775;28;20083;-73
2023/04/04 15:24:16;;;;;;;5.05;2.15;;;;;;;22.18;41.31;101578.94;20829899;28;20038;-73
2023/04/04 15:34:17;;;;;;;5.70;2.30;;;;;;;22.23;40.81;101576.16;20829172;28;20033;-73
2023/04/04 15:44:21;;;;;;;4.30;2.10;;;;;;;22.24;40.99;101580.63;20828088;28;20037;-73
2023/04/04 15:54:27;;;;;;;5.18;1.70;;;;;;;21.62;40.68;101464.47;20827667;28;20554;-72
2023/04/04 16:04:29;;;;;;;4.10;1.90;;;;;;;22.25;40.76;101562.78;20827078;28;20074;-73
2023/04/04 16:14:33;;;;;;;3.95;1.63;;;;;;;22.16;40.95;101544.91;20826980;28;20041;-73
2023/04/04 16:24:38;;;;;;;4.75;2.00;;;;;;;22.27;40.83;101549.41;20826594;28;20042;-73
2023/04/04 16:34:39;;;;;;;2.80;1.80;;;;;;;22.25;40.62;101540.47;20838121;28;20046;-73
2023/04/04 16:44:40;;;;;;;4.22;1.67;;;;;;;22.24;40.63;101522.06;20841593;28;20045;-73
2023/04/04 16:54:42;;;;;;;3.35;1.85;;;;;;;22.23;41.12;101525.16;20841495;28;20096;-73
2023/04/04 17:04:44;;;;;;;3.40;1.50;;;;;;;22.09;40.69;101491.34;20841197;28;20029;-72
2023/04/04 17:14:46;;;;;;;2.30;1.58;;;;;;;22.21;40.70;101497.53;20839652;28;20150;-73
2023/04/04 17:24:47;;;;;;;4.90;1.63;;;;;;;22.20;40.76;101481.91;20838914;28;20485;-73
2023/04/04 17:34:49;;;;;;;3.15;1.30;;;;;;;22.27;40.79;101476.09;20838547;28;20102;-73
2023/04/04 17:44:53;;;;;;;2.40;1.73;;;;;;;22.25;40.69;101462.41;20837244;28;20049;-73
2023/04/04 17:54:55;;;;;;;2.75;1.10;;;;;;;22.28;40.30;101453.50;20837022;28;20427;-73
2023/04/04 18:04:59;;;;;;;2.40;1.50;;;;;;;22.36;40.55;101451.25;20837684;28;20032;-73
2023/04/04 18:15:01;;;;;;;2.17;1.15;;;;;;;22.38;40.18;101446.25;20835895;28;20623;-73
2023/04/04 18:25:03;;;;;;;1.67;1.40;;;;;;;22.28;40.08;101420.03;20834505;28;20037;-72
2023/04/04 18:35:05;;;;;;;1.75;1.48;;;;;;;22.44;40.39;101450.72;20849228;28;20095;-73
2023/04/04 18:45:08;;;;;;;1.50;1.33;;;;;;;22.31;40.62;101427.00;20851047;28;20095;-73
2023/04/04 18:55:10;;;;;;;2.65;1.35;;;;;;;22.34;40.31;101415.28;20832355;28;20049;-74
2023/04/04 19:05:12;;;;;;;2.42;1.52;;;;;;;22.46;40.71;101423.38;20832644;28;20038;-73
2023/04/04 19:15:14;;;;;;;2.15;1.23;;;;;;;22.36;40.37;101396.34;20826791;28;20029;-73
2023/04/04 19:25:16;;;;;;;2.72;1.35;;;;;;;22.50;40.34;101393.84;20751424;28;20041;-73
2023/04/04 19:35:52;;;;;;;8.63;1.85;;;;;;;22.57;40.96;101386.00;20738585;28;20153;-70
2023/04/04 19:46:03;;;;;;;4.82;1.60;;;;;;;22.68;40.78;101387.66;20745564;28;20042;-71
2023/04/04 19:56:09;;;;;;;2.97;1.45;;;;;;;22.72;40.92;101371.16;20707197;28;20049;-69
2023/04/04 20:06:20;;;;;;;6.60;1.52;;;;;;;22.68;41.09;101364.47;20747953;28;20073;-70
2023/04/04 20:16:23;;;;;;;3.53;1.42;;;;;;;22.68;41.18;101362.56;20750625;28;20073;-67
2023/04/04 20:26:42;;;;;;;3.58;1.70;;;;;;;22.70;41.04;101359.47;20753895;28;20056;-67
2023/04/04 20:36:52;;;;;;;4.22;1.55;;;;;;;22.93;40.19;101364.44;20739818;28;20054;-72
2023/04/04 20:47:39;;;;;;;15.05;2.38;;;;;;;22.95;41.07;101345.44;20691010;28;20393;-72
2023/04/04 20:57:47;;;;;;;5.60;2.65;;;;;;;23.07;41.71;101345.13;20764594;28;20041;-72
2023/04/04 21:07:52;;;;;;;8.13;2.13;;;;;;;23.15;41.06;101350.13;20833556;28;20669;-73
2023/04/04 21:17:58;;;;;;;7.07;2.30;;;;;;;23.20;42.49;101350.09;20713638;28;20072;-72
2023/04/04 21:28:08;;;;;;;10.63;2.70;;;;;;;23.21;41.62;101368.53;20761100;28;20042;-74
2023/04/04 21:38:45;;;;;;;;;;;;;;;;;;;;;
2023/04/04 21:48:47;;;;;;;4.30;2.33;;;;;;;23.24;41.74;101379.13;20746650;28;20037;-73
2023/04/04 21:58:48;;;;;;;5.18;2.10;;;;;;;23.20;41.90;101377.19;20749637;28;20041;-73
2023/04/04 22:08:57;;;;;;;7.85;2.42;;;;;;;23.31;42.15;101423.47;20757175;28;20050;-73
2023/04/04 22:18:59;;;;;;;6.57;2.70;;;;;;;23.16;42.89;101404.00;20727192;28;20033;-70
2023/04/04 22:29:03;;;;;;;21.13;3.97;;;;;;;23.45;42.75;101455.25;20751024;28;20382;-67
2023/04/04 22:39:04;;;;;;;6.13;3.10;;;;;;;23.46;42.87;101458.88;20751332;28;20045;-67
2023/04/04 22:49:07;;;;;;;10.23;2.83;;;;;;;23.48;43.13;101467.84;20750777;28;20096;-67
2023/04/04 22:59:21;;;;;;;7.68;2.85;;;;;;;23.53;43.37;101476.19;20747652;28;20026;-66
2023/04/04 23:09:23;;;;;;;6.45;2.50;;;;;;;23.52;43.35;101496.88;20768652;28;20112;-67
2023/04/04 23:19:25;;;;;;;9.70;2.72;;;;;;;23.54;43.20;101494.63;20725412;28;20037;-70
2023/04/04 23:29:26;;;;;;;7.38;3.45;;;;;;;23.56;43.42;101497.97;20737520;28;20046;-70
2023/04/04 23:39:28;;;;;;;6.28;2.33;;;;;;;23.60;43.13;101524.22;20752346;28;20050;-70
2023/04/04 23:49:30;;;;;;;7.90;3.20;;;;;;;23.54;43.84;101528.13;20753773;28;20455;-70
2023/04/04 23:59:41;;;;;;;14.98;3.83;;;;;;;23.56;43.28;101548.25;20752376;28;20124;-71
